Latest Weather Observations for Avalon

IDV60801

Issued at 7:03 am EDT Friday 24 March 2017 (issued every 30 minutes, with the page automatically refreshed every 10 minutes)

About weather observations | Map of weather stations | Latest weather observations for VIC | Other Formats
Station Details ID: 087113 Name: AVALON AIRPORT Lat: -38.03 Lon: 144.48 Height: 10.6 m
Data from the previous 72 hours. | See also: Recent months at Avalon
Date/Time
EDT
Temp
°C
App
Temp
°C
Dew
Point
°C
Rel
Hum
%
Delta-T
°C
Wind Press
QNH
hPa
Press
MSL
hPa
Rain since
9am
mm
Dir  Spd
km/h
Gust
km/h
Spd
kts
Gust
kts
24/07:00am 17.1 14.4 14.6 85 1.4 E 22 28 12 15 1018.6 1018.6 0.0
24/06:30am 17.4 14.8 14.9 85 1.4 E 22 30 12 16 1018.6 1018.6 0.0
24/06:00am 17.5 14.4 14.6 83 1.7 E 24 30 13 16 1018.8 1018.8 0.0
24/05:30am 17.4 13.9 14.5 83 1.7 ESE 26 33 14 18 1018.6 1018.6 0.0
24/05:00am 17.2 14.5 14.5 84 1.5 E 22 28 12 15 1019.0 1019.0 0.0
24/04:30am 17.1 13.1 14.2 83 1.7 E 28 37 15 20 1019.1 1019.1 0.0
24/04:00am 17.3 12.4 14.2 82 1.8 ESE 33 44 18 24 1018.9 1018.9 0.0
24/03:30am 17.2 12.4 13.9 81 1.9 ESE 32 41 17 22 1019.2 1019.2 0.0
24/03:00am 17.5 11.7 14.0 80 2.0 ESE 37 44 20 24 1019.5 1019.5 0.0
24/02:30am 17.4 13.3 13.9 80 2.0 ESE 28 41 15 22 1020.3 1020.3 0.0
24/02:00am 17.5 12.4 13.8 79 2.1 ESE 33 44 18 24 1020.1 1020.1 0.0
24/01:30am 17.7 12.1 13.4 76 2.4 ESE 35 44 19 24 1020.3 1020.3 0.0
24/01:00am 17.6 12.8 13.9 79 2.1 ESE 32 43 17 23 1020.6 1020.6 0.0
24/12:30am 17.8 12.3 13.7 77 2.3 ESE 35 50 19 27 1020.5 1020.5 0.0
24/12:00am 17.9 12.1 13.8 77 2.3 ESE 37 50 20 27 1020.4 1020.4 0.0
 
Date/Time
EDT
Temp
°C
App
Temp
°C
Dew
Point
°C
Rel
Hum
%
Delta-T
°C
Wind Press
QNH
hPa
Press
MSL
hPa
Rain since
9am
mm
Dir  Spd
km/h
Gust
km/h
Spd
kts
Gust
kts
23/11:30pm 17.9 13.0 14.4 80 2.0 ESE 33 43 18 23 1021.0 1021.0 0.0
23/11:00pm 18.1 13.3 14.6 80 2.0 ESE 33 43 18 23 1020.8 1020.8 0.0
23/10:30pm 18.2 13.6 14.7 80 2.0 ESE 32 41 17 22 1021.1 1021.1 0.0
23/10:00pm 18.5 16.1 15.4 82 1.8 SE 22 32 12 17 1021.5 1021.5 0.0
23/09:30pm 18.5 15.7 15.4 82 1.8 SE 24 37 13 20 1020.9 1020.9 0.0
23/09:00pm 18.7 15.1 15.2 80 2.0 SE 28 35 15 19 1020.5 1020.5 0.0
23/08:30pm 18.4 15.1 15.1 81 1.9 SSE 26 33 14 18 1020.2 1020.2 0.0
23/08:00pm 18.6 14.9 15.1 80 2.0 SSE 28 39 15 21 1019.7 1019.7 0.0
23/07:30pm 18.8 14.8 15.3 80 2.1 SSE 30 41 16 22 1019.3 1019.3 0.0
23/07:00pm 19.5 14.9 14.7 74 2.8 SSE 32 39 17 21 1019.2 1019.2 0.0
23/06:30pm 19.9 15.5 15.1 74 2.8 SSE 32 39 17 21 1019.3 1019.3 0.0
23/06:00pm 20.8 16.3 15.4 71 3.2 SSE 33 43 18 23 1019.3 1019.3 0.0
23/05:30pm 21.3 16.5 15.6 70 3.4 SSE 35 44 19 24 1019.2 1019.2 0.0
23/05:00pm 21.6 17.1 15.4 68 3.7 SSE 33 44 18 24 1019.2 1019.2 0.0
23/04:30pm 22.0 17.1 15.4 66 3.9 SSE 35 43 19 23 1019.3 1019.3 0.0
23/04:00pm 22.1 17.8 15.9 68 3.7 S 33 44 18 24 1019.5 1019.5 0.0
23/03:30pm 21.7 16.8 15.3 67 3.8 S 35 43 19 23 1019.6 1019.6 0.0
23/03:00pm 21.6 18.1 15.4 68 3.7 SSE 28 37 15 20 1019.8 1019.8 0.0
23/02:30pm 22.1 18.2 14.5 62 4.5 SSE 28 35 15 19 1019.8 1019.8 0.0
23/02:00pm 22.3 19.0 13.9 59 4.9 SE 24 30 13 16 1020.0 1020.0 0.0
23/01:30pm 22.7 18.7 14.0 58 5.1 ESE 28 35 15 19 1020.4 1020.4 0.0
23/01:00pm 22.6 18.8 14.7 61 4.7 ESE 28 37 15 20 1020.7 1020.7 0.0
23/12:30pm 22.1 17.7 14.0 60 4.7 ESE 30 39 16 21 1020.9 1020.9 0.0
23/12:00pm 21.8 17.4 14.2 62 4.4 ESE 30 39 16 21 1021.3 1021.3 0.0
23/11:30am 21.1 17.5 15.2 69 3.5 ESE 28 37 15 20 1021.5 1021.5 0.0
23/11:00am 20.2 15.6 14.6 70 3.3 ESE 32 39 17 21 1021.6 1021.6 0.0
23/10:30am 19.8 15.6 14.6 72 3.0 SE 30 39 16 21 1021.5 1021.5 0.0
23/10:00am 18.8 15.1 15.1 79 2.2 SE 28 35 15 19 1021.5 1021.5 0.0
23/09:30am 18.3 14.3 15.2 82 1.8 SE 30 37 16 20 1021.5 1021.5 0.0
23/09:00am 17.8 13.8 15.1 84 1.6 SE 30 39 16 21 1021.2 1021.2 0.0
23/08:30am 17.5 13.4 15.0 85 1.5 SE 30 39 16 21 1021.0 1021.0 0.0
23/08:00am 17.1 12.6 14.9 87 1.3 SE 32 39 17 21 1021.0 1021.0 0.0
23/07:30am 16.8 13.9 15.2 90 0.9 SE 24 30 13 16 1020.6 1020.6 0.0
23/07:00am 16.6 14.1 15.1 91 0.9 SSE 22 28 12 15 1020.4 1020.4 0.0
23/06:30am 16.6 14.4 14.8 89 1.0 SE 20 30 11 16 1020.3 1020.3 0.0
23/06:00am 16.6 14.3 14.6 88 1.1 SE 20 28 11 15 1020.3 1020.3 0.0
23/05:30am 16.5 14.2 14.7 89 1.0 SE 20 28 11 15 1020.1 1020.1 0.0
23/05:00am 16.3 13.9 14.5 89 1.0 SE 20 28 11 15 1020.0 1020.0 0.0
23/04:30am 16.7 13.5 14.3 86 1.4 SE 24 30 13 16 1020.1 1020.1 0.0
23/04:00am 17.0 13.8 14.3 84 1.5 SE 24 35 13 19 1019.9 1019.9 0.0
23/03:30am 16.8 13.6 14.3 85 1.4 SE 24 33 13 18 1020.0 1020.0 0.0
23/03:00am 16.6 13.3 14.1 85 1.4 SE 24 35 13 19 1019.9 1019.9 0.0
23/02:30am 17.1 12.4 14.2 83 1.7 ESE 32 44 17 24 1019.7 1019.7 0.0
23/02:00am 17.0 13.1 14.5 85 1.4 ESE 28 39 15 21 1020.0 1020.0 0.0
23/01:30am 17.2 12.3 14.3 83 1.7 ESE 33 41 18 22 1020.3 1020.3 0.0
23/01:00am 17.2 13.3 14.3 83 1.7 ESE 28 37 15 20 1020.4 1020.4 0.0
23/12:30am 17.4 13.1 14.3 82 1.8 ESE 30 41 16 22 1020.3 1020.3 0.0
23/12:00am 17.7 13.6 14.8 83 1.7 ESE 30 37 16 20 1020.5 1020.5 0.0
 
Date/Time
EDT
Temp
°C
App
Temp
°C
Dew
Point
°C
Rel
Hum
%
Delta-T
°C
Wind Press
QNH
hPa
Press
MSL
hPa
Rain since
9am
mm
Dir  Spd
km/h
Gust
km/h
Spd
kts
Gust
kts
22/11:30pm 17.7 13.5 14.6 82 1.8 ESE 30 37 16 20 1020.5 1020.5 0.0
22/11:00pm 18.0 13.9 14.9 82 1.8 SE 30 39 16 21 1020.5 1020.5 0.0
22/10:30pm 18.3 14.8 15.4 83 1.7 SE 28 39 15 21 1020.6 1020.6 0.0
22/10:00pm 18.2 14.2 15.1 82 1.8 SE 30 39 16 21 1020.3 1020.3 0.0
22/09:30pm 18.5 14.9 15.2 81 1.9 SE 28 41 15 22 1019.7 1019.7 0.0
22/09:00pm 18.9 14.4 15.0 78 2.3 SE 32 41 17 22 1019.5 1019.5 0.0
22/08:30pm 18.8 16.0 15.3 80 2.1 SE 24 32 13 17 1019.2 1019.2 0.0
22/08:00pm 18.7 16.0 15.6 82 1.8 SSE 24 33 13 18 1018.6 1018.6 0.0
22/07:30pm 19.2 15.8 15.7 80 2.1 SSE 28 39 15 21 1018.3 1018.3 0.0
22/07:00pm 19.5 15.2 15.4 77 2.4 SE 32 39 17 21 1017.8 1017.8 0.0
22/06:30pm 19.9 15.6 15.3 75 2.7 SE 32 41 17 22 1017.7 1017.7 0.0
22/06:00pm 19.7 15.9 15.8 78 2.3 SE 30 39 16 21 1017.6 1017.6 0.0
22/05:30pm 19.8 15.9 15.4 76 2.6 SE 30 41 16 22 1017.5 1017.5 0.0
22/05:00pm 19.9 16.2 16.0 78 2.3 SE 30 35 16 19 1017.4 1017.4 0.0
22/04:30pm 20.2 17.0 16.2 78 2.4 SE 28 35 15 19 1017.3 1017.3 0.0
22/04:00pm 19.9 16.8 16.5 81 2.0 SE 28 35 15 19 1017.2 1017.2 0.0
22/03:30pm 18.5 16.0 17.2 92 0.8 SE 26 33 14 18 1017.5 1017.5 0.0
22/03:00pm 19.5 16.4 16.5 83 1.8 SSE 28 35 15 19 1017.3 1017.3 0.0
22/02:30pm 19.7 16.5 16.3 81 2.0 SSE 28 35 15 19 1017.3 1017.3 0.0
22/02:00pm 19.6 16.6 16.8 84 1.7 SSE 28 37 15 20 1017.6 1017.6 0.0
22/01:30pm 19.3 15.6 16.9 86 1.5 SSE 32 39 17 21 1017.5 1017.5 0.0
22/01:24pm 19.3 15.6 16.9 86 1.5 SSE 32 39 17 21 1017.5 1017.5 0.0
22/01:00pm 19.3 16.0 17.1 87 1.3 SSE 30 37 16 20 1017.6 1017.6 0.0
22/12:40pm 19.2 16.5 17.5 90 1.0 SSE 28 33 15 18 1017.8 1017.8 0.0
22/12:30pm 19.0 17.0 17.5 91 0.9 SSE 24 33 13 18 1017.9 1017.9 0.0
22/12:00pm 19.1 15.8 17.1 88 1.2 SSE 30 39 16 21 1018.0 1018.0 0.0
22/11:41am 18.9 15.2 17.0 89 1.1 SSE 32 41 17 22 1018.0 1018.0 0.0
22/11:30am 18.8 15.7 17.5 92 0.8 SSE 30 39 16 21 1018.0 1018.0 0.0
22/11:00am 18.8 15.8 17.8 94 0.6 SSE 30 35 16 19 1017.9 1017.9 0.0
22/10:30am 18.5 16.1 18.3 99 0.1 SSE 28 37 15 20 1017.5 1017.5 0.0
22/10:00am 18.0 15.1 18.0 100 0.0 SSE 30 37 16 20 1017.5 1017.5 0.0
22/09:30am 17.6 14.9 17.6 100 0.0 S 28 35 15 19 1017.3 1017.3 0.0
22/09:19am 17.5 14.8 17.5 100 0.0 S 28 35 15 19 1017.4 1017.4 0.0
22/09:00am 17.4 14.6 17.4 100 0.0 S 28 33 15 18 1017.3 1017.3 34.6
22/08:40am 17.3 14.1 17.3 100 0.0 S 30 37 16 20 1017.1 1017.1 34.6
22/08:30am 17.3 13.7 17.3 100 0.0 S 32 43 17 23 1016.9 1016.9 34.6
22/08:24am 17.2 14.4 17.2 100 0.0 S 28 43 15 23 1016.8 1016.8 34.6
22/08:07am 17.2 14.0 17.2 100 0.0 SSE 30 41 16 22 1016.6 1016.6 34.6
22/08:00am 17.1 13.5 17.1 100 0.0 S 32 43 17 23 1016.5 1016.5 34.6
22/07:38am 17.2 15.1 17.2 100 0.0 S 24 32 13 17 1016.2 1016.2 34.6
22/07:30am 17.0 13.7 17.0 100 0.0 SSE 30 35 16 19 1016.0 1016.0 34.6
22/07:26am 16.9 13.6 16.9 100 0.0 SSE 30 35 16 19 1016.0 1016.0 34.6
22/07:00am 16.8 13.0 16.8 100 0.0 S 32 41 17 22 1015.5 1015.5 34.6
22/06:30am 17.2 14.0 17.2 100 0.0 S 30 39 16 21 1015.0 1015.0 34.6
22/06:27am 17.1 13.5 17.1 100 0.0 SSE 32 44 17 24 1015.0 1015.0 34.6
22/06:00am 17.1 13.5 17.1 100 0.0 S 32 39 17 21 1014.8 1014.8 34.4
22/05:52am 17.2 14.0 17.2 100 0.0 S 30 39 16 21 1014.8 1014.8 34.4
22/05:30am 17.2 13.4 17.2 100 0.0 S 33 41 18 22 1014.5 1014.5 34.4
22/05:00am 17.3 14.1 17.3 100 0.0 S 30 37 16 20 1014.3 1014.3 34.4
22/04:30am 17.1 13.5 17.1 100 0.0 S 32 37 17 20 1014.1 1014.1 34.4
22/04:00am 17.1 12.9 17.1 100 0.0 S 35 54 19 29 1013.9 1013.9 34.4
22/03:56am 17.1 12.9 17.1 100 0.0 S 35 54 19 29 1013.9 1013.9 34.4
22/03:51am 17.1 12.9 17.1 100 0.0 S 35 54 19 29 1013.8 1013.8 34.4
22/03:30am 17.0 12.4 17.0 100 0.0 S 37 48 20 26 1013.7 1013.7 34.4
22/03:00am 17.1 12.5 17.1 100 0.0 SSW 37 50 20 27 1013.1 1013.1 34.0
22/02:30am 17.5 13.5 17.5 100 0.0 S 35 43 19 23 1012.8 1012.8 32.8
22/02:25am 17.5 14.0 17.5 100 0.0 S 32 43 17 23 1012.7 1012.7 32.2
22/02:09am 17.9 15.3 17.9 100 0.0 SSW 28 41 15 22 1012.8 1012.8 30.0
22/02:00am 18.1 17.2 18.1 100 0.0 SW 20 32 11 17 1012.6 1012.6 29.6
22/01:30am 18.3 15.5 18.3 100 0.0 SSE 30 39 16 21 1011.9 1011.9 29.4
22/01:00am 18.6 16.4 18.6 100 0.0 SSE 28 37 15 20 1011.7 1011.7 29.4
22/12:30am 18.8 17.4 18.8 100 0.0 SSE 24 30 13 16 1011.6 1011.6 29.4
22/12:13am 19.0 17.7 19.0 100 0.0 SSE 24 32 13 17 1011.5 1011.5 29.2
22/12:00am 19.1 17.5 19.1 100 0.0 SSE 26 33 14 18 1011.4 1011.4 29.2
 
Date/Time
EDT
Temp
°C
App
Temp
°C
Dew
Point
°C
Rel
Hum
%
Delta-T
°C
Wind Press
QNH
hPa
Press
MSL
hPa
Rain since
9am
mm
Dir  Spd
km/h
Gust
km/h
Spd
kts
Gust
kts
21/11:30pm 19.4 18.3 19.4 100 0.0 SSE 24 32 13 17 1011.3 1011.3 29.2
21/11:00pm 19.5 18.8 19.5 100 0.0 SSE 22 30 12 16 1011.4 1011.4 29.2
21/10:48pm 19.6 18.9 19.6 100 0.0 SSE 22 32 12 17 1011.4 1011.4 29.2
21/10:30pm 19.6 18.9 19.6 100 0.0 SSE 22 32 12 17 1011.3 1011.3 29.2
21/10:23pm 19.7 19.1 19.7 100 0.0 SSE 22 30 12 16 1011.3 1011.3 29.2
21/10:00pm 19.8 19.2 19.8 100 0.0 SSE 22 39 12 21 1011.1 1011.1 29.2
21/09:54pm 19.7 18.7 19.7 100 0.0 SSE 24 39 13 21 1011.0 1011.0 29.2
21/09:30pm 19.5 19.4 19.5 100 0.0 SSE 19 24 10 13 1010.8 1010.8 29.2
21/09:14pm 19.5 19.4 19.5 100 0.0 S 19 24 10 13 1010.6 1010.6 29.2
21/09:00pm 19.7 19.7 19.7 100 0.0 S 19 22 10 12 1010.5 1010.5 29.2
21/08:30pm 19.9 19.8 19.9 100 0.0 S 20 28 11 15 1010.2 1010.2 29.2
21/08:00pm 20.2 20.4 20.2 100 0.0 S 19 24 10 13 1009.7 1009.7 29.2
21/07:32pm 20.3 20.6 20.3 100 0.0 SSW 19 24 10 13 1009.6 1009.6 29.2
21/07:30pm 20.4 20.7 20.4 100 0.0 S 19 24 10 13 1009.6 1009.6 29.2
21/07:01pm 20.5 20.7 20.5 100 0.0 SE 20 26 11 14 1009.3 1009.3 29.2
21/07:00pm 20.5 20.7 20.5 100 0.0 SE 20 32 11 17 1009.3 1009.3 29.2
21/06:36pm 20.3 18.8 20.3 100 0.0 SSE 28 37 15 20 1008.8 1008.8 29.2
21/06:35pm 20.3 18.8 20.3 100 0.0 SSE 28 37 15 20 1008.8 1008.8 29.2
21/06:30pm 20.2 18.7 20.2 100 0.0 SSE 28 37 15 20 1008.9 1008.9 29.2
21/06:15pm 19.9 18.2 19.9 100 0.0 S 28 35 15 19 1009.1 1009.1 28.6
21/06:00pm 20.2 19.5 20.2 100 0.0 SSE 24 32 13 17 1008.8 1008.8 27.2
21/05:53pm 20.2 19.1 20.2 100 0.0 SSE 26 33 14 18 1008.7 1008.7 27.2
21/05:35pm 20.3 18.8 20.3 100 0.0 S 28 33 15 18 1008.9 1008.9 23.6
21/05:30pm 20.3 18.8 20.3 100 0.0 S 28 35 15 19 1008.9 1008.9 21.2
21/05:00pm 21.1 21.2 21.1 100 0.0 SSE 22 32 12 17 1008.8 1008.8 8.6
21/04:30pm 21.2 21.0 21.2 100 0.0 SSE 24 32 13 17 1009.2 1009.2 3.6
21/04:27pm 21.1 21.2 21.1 100 0.0 SSE 22 32 12 17 1009.1 1009.1 3.4
21/04:26pm 21.2 21.3 21.2 100 0.0 SSE 22 32 12 17 1009.1 1009.1 3.0
21/04:21pm 21.3 21.9 21.3 100 0.0 SE 20 28 11 15 1009.3 1009.3 1.6
21/04:09pm 21.5 21.1 21.0 97 0.3 SE 24 32 13 17 1009.5 1009.5 1.4
21/04:00pm 22.2 21.9 20.3 89 1.2 SE 22 32 12 17 1009.5 1009.5 0.2
21/03:30pm 22.8 22.1 19.6 82 2.0 SE 22 28 12 15 1009.9 1009.9 0.2
21/03:00pm 23.6 23.1 19.9 80 2.4 SE 22 30 12 16 1009.9 1009.9 0.0
21/02:33pm 24.1 24.2 20.4 80 2.4 SE 20 30 11 16 1010.1 1010.1 0.0
21/02:30pm 23.9 23.6 20.4 81 2.3 SE 22 30 12 16 1010.2 1010.2 0.0
21/02:00pm 23.7 24.1 21.0 85 1.8 ESE 20 26 11 14 1010.8 1010.8 0.0
21/01:30pm 22.4 22.7 20.7 90 1.1 ESE 20 28 11 15 1011.0 1011.0 0.0
21/01:00pm 21.6 21.9 20.8 95 0.5 ESE 20 24 11 13 1011.5 1011.5 0.0
21/12:30pm 21.3 21.9 21.0 98 0.2 ESE 19 24 10 13 1012.0 1012.0 0.0
21/12:00pm 21.1 21.6 20.9 99 0.1 ESE 19 20 10 11 1012.5 1012.5 0.0
21/11:55am 21.0 21.5 20.8 99 0.1 ESE 19 20 10 11 1012.5 1012.5 0.0
21/11:30am 20.9 22.2 20.9 100 0.0 ESE 15 19 8 10 1012.7 1012.7 0.0
21/11:00am 20.4 22.1 20.2 99 0.1 ENE 11 15 6 8 1013.2 1013.2 0.0
21/10:30am 20.3 22.4 20.1 99 0.1 E 9 13 5 7 1013.3 1013.3 0.0
21/10:00am 20.4 22.2 20.4 100 0.0 E 11 15 6 8 1013.4 1013.4 0.0
21/09:49am 20.3 21.3 20.3 100 0.0 E 15 19 8 10 1013.4 1013.4 0.0
21/09:30am 20.4 21.1 20.4 100 0.0 E 17 20 9 11 1013.1 1013.1 0.0
21/09:00am 20.3 21.3 20.3 100 0.0 E 15 19 8 10 1013.4 1013.4 3.0
21/08:30am 20.1 21.4 20.1 100 0.0 E 13 15 7 8 1013.2 1013.2 3.0
21/08:00am 20.3 21.7 20.3 100 0.0 E 13 17 7 9 1013.1 1013.1 3.0
21/07:57am 20.2 21.2 20.2 100 0.0 E 15 19 8 10 1013.1 1013.1 3.0
21/07:30am 19.6 21.4 19.6 100 0.0 SE 9 15 5 8 1012.8 1012.8 3.0

Other Formats:

Comma delimited format used in spreadsheet applications
http://www.bom.gov.au/fwo/IDV60801/IDV60801.94854.axf

JavaScript Object Notation format (JSON) in row-major order
http://www.bom.gov.au/fwo/IDV60801/IDV60801.94854.json